createdAt,value
2019-06-25T00:02:32.377Z,100601.41
2019-06-25T00:05:37.285Z,100599.84
2019-06-25T00:08:42.336Z,100598.07
2019-06-25T00:11:47.215Z,100599.91
2019-06-25T00:14:52.373Z,100596.22
2019-06-25T00:17:57.371Z,100595.93
2019-06-25T00:21:02.440Z,100597.34
2019-06-25T00:24:07.178Z,100595.57
2019-06-25T00:27:12.526Z,100590.23
2019-06-25T00:30:17.489Z,100596.36
2019-06-25T00:33:22.895Z,100595.34
2019-06-25T00:36:27.967Z,100600.47
2019-06-25T00:39:32.779Z,100599.25
2019-06-25T00:42:38.220Z,100602.44
2019-06-25T00:45:43.504Z,100601.81
2019-06-25T00:48:48.606Z,100601.14
2019-06-25T00:51:53.848Z,100596.87
2019-06-25T00:54:58.928Z,100592.75
2019-06-25T00:58:04.142Z,100594.98
2019-06-25T01:01:08.887Z,100591.12
2019-06-25T01:04:13.613Z,100592.53
2019-06-25T01:07:18.432Z,100593.52
2019-06-25T01:10:23.317Z,100602.44
2019-06-25T01:13:28.130Z,100599.55
2019-06-25T01:16:33.240Z,100605.59
2019-06-25T01:19:37.997Z,100598.12
2019-06-25T01:22:43.065Z,100591.75
2019-06-25T01:25:48.367Z,100592.12
2019-06-25T01:28:53.705Z,100581.52
2019-06-25T01:31:59.068Z,100586.41
2019-06-25T01:35:03.909Z,100581.20
2019-06-25T01:38:08.732Z,100579.17
2019-06-25T01:41:13.529Z,100579.00
2019-06-25T01:44:19.185Z,100581.83
2019-06-25T01:47:24.220Z,100585.30
2019-06-25T01:50:29.255Z,100583.30
2019-06-25T01:53:34.470Z,100581.75
2019-06-25T01:56:39.519Z,100579.34
2019-06-25T01:59:46.025Z,100584.16
2019-06-25T02:02:50.854Z,100579.50
2019-06-25T02:05:55.659Z,100573.88
2019-06-25T02:09:00.705Z,100570.86
2019-06-25T02:12:08.122Z,100563.31
2019-06-25T02:15:13.507Z,100562.48
2019-06-25T02:18:18.302Z,100561.05
2019-06-25T02:21:23.375Z,100554.53
2019-06-25T02:24:28.521Z,100546.34
2019-06-25T02:27:33.618Z,100543.64
2019-06-25T02:30:38.492Z,100537.11
2019-06-25T02:33:43.714Z,100554.97
2019-06-25T02:36:48.560Z,100551.25
2019-06-25T02:39:53.626Z,100540.72
2019-06-25T02:42:58.490Z,100538.09
2019-06-25T02:46:03.494Z,100539.93
2019-06-25T02:49:09.459Z,100543.14
2019-06-25T02:52:14.249Z,100551.91
2019-06-25T02:55:19.707Z,100553.14
2019-06-25T02:58:24.552Z,100556.20
2019-06-25T03:01:30.217Z,100556.05
2019-06-25T03:04:35.477Z,100553.27
2019-06-25T03:07:41.471Z,100555.34
2019-06-25T03:10:46.262Z,100560.75
2019-06-25T03:13:51.638Z,100558.64
2019-06-25T03:16:56.725Z,100553.38
2019-06-25T03:20:01.539Z,100554.39
2019-06-25T03:23:06.880Z,100555.61
2019-06-25T03:26:11.666Z,100567.34
2019-06-25T03:29:16.432Z,100562.63
2019-06-25T03:32:21.163Z,100560.91
2019-06-25T03:35:26.571Z,100557.39
2019-06-25T03:38:31.959Z,100558.86
2019-06-25T03:41:36.731Z,100559.61
2019-06-25T03:44:41.849Z,100557.02
2019-06-25T03:47:47.292Z,100559.57
2019-06-25T03:50:52.043Z,100559.47
2019-06-25T03:53:57.363Z,100558.25
2019-06-25T03:57:02.112Z,100563.12
2019-06-25T04:00:07.774Z,100559.45
2019-06-25T04:03:13.606Z,100566.78
2019-06-25T04:06:18.499Z,100571.06
2019-06-25T04:09:23.749Z,100576.05
2019-06-25T04:12:29.388Z,100576.25
2019-06-25T04:15:34.179Z,100574.91
2019-06-25T04:18:38.943Z,100575.92
2019-06-25T04:21:43.724Z,100573.44
2019-06-25T04:24:48.471Z,100570.27
2019-06-25T04:27:53.553Z,100573.93
2019-06-25T04:30:58.623Z,100571.85
2019-06-25T04:34:03.624Z,100567.91
2019-06-25T04:37:08.331Z,100562.77
2019-06-25T04:40:13.976Z,100565.31
2019-06-25T04:43:20.080Z,100577.05
2019-06-25T04:46:24.910Z,100570.60
2019-06-25T04:49:29.739Z,100576.47
2019-06-25T04:52:34.823Z,100572.66
2019-06-25T04:55:39.699Z,100578.22
2019-06-25T04:58:44.430Z,100588.19
2019-06-25T05:01:49.379Z,100590.17
2019-06-25T05:04:55.095Z,100592.86
2019-06-25T05:08:01.003Z,100588.67
2019-06-25T05:11:06.372Z,100590.84
2019-06-25T05:14:12.162Z,100593.88
2019-06-25T05:17:17.711Z,100596.94
2019-06-25T05:20:22.619Z,100595.95
2019-06-25T05:23:29.516Z,100606.36
2019-06-25T05:26:35.061Z,100619.42
2019-06-25T05:29:39.918Z,100616.52
2019-06-25T05:32:45.405Z,100616.15
2019-06-25T05:36:02.651Z,100621.02
2019-06-25T05:39:09.736Z,100624.53
2019-06-25T05:42:14.671Z,100629.84
2019-06-25T05:45:20.445Z,100637.93
2019-06-25T05:48:27.831Z,100625.01
2019-06-25T05:51:32.543Z,100630.03
2019-06-25T05:54:38.202Z,100630.94
2019-06-25T05:57:43.076Z,100637.54
2019-06-25T06:00:48.072Z,100645.98
2019-06-25T06:03:53.075Z,100645.86
2019-06-25T06:06:57.877Z,100649.22
2019-06-25T06:10:03.737Z,100651.21
2019-06-25T06:13:08.873Z,100653.27
2019-06-25T06:16:13.746Z,100655.50
2019-06-25T06:19:18.470Z,100650.48
2019-06-25T06:22:23.665Z,100655.99
2019-06-25T06:25:28.412Z,100661.83
2019-06-25T06:28:33.509Z,100665.87
2019-06-25T06:31:38.421Z,100668.73
2019-06-25T06:34:43.381Z,100663.66
2019-06-25T06:37:48.295Z,100673.05
2019-06-25T06:40:53.262Z,100671.34
2019-06-25T06:43:58.423Z,100667.66
2019-06-25T06:47:03.739Z,100673.73
2019-06-25T06:50:09.185Z,100674.00
2019-06-25T06:53:15.072Z,100678.59
2019-06-25T06:56:19.989Z,100685.81
2019-06-25T06:59:25.315Z,100686.97
2019-06-25T07:02:30.294Z,100691.18
2019-06-25T07:05:35.229Z,100690.03
2019-06-25T07:08:40.370Z,100697.22
2019-06-25T07:11:46.547Z,100687.63
2019-06-25T07:14:52.271Z,100690.31
2019-06-25T07:17:57.260Z,100685.55
2019-06-25T07:21:02.643Z,100694.44
2019-06-25T07:24:07.465Z,100699.54
2019-06-25T07:27:12.311Z,100704.98
2019-06-25T07:30:19.193Z,100702.91
2019-06-25T07:33:24.819Z,100711.66
2019-06-25T07:36:30.081Z,100712.41
2019-06-25T07:39:35.538Z,100711.59
2019-06-25T07:42:41.552Z,100710.23
2019-06-25T07:45:47.606Z,100714.66
2019-06-25T07:48:53.668Z,100714.52
2019-06-25T07:51:58.768Z,100714.45
2019-06-25T07:55:03.860Z,100719.84
2019-06-25T07:58:09.026Z,100715.11
2019-06-25T08:01:14.758Z,100710.92
2019-06-25T08:04:25.517Z,100713.81
2019-06-25T08:07:27.248Z,100704.52
2019-06-25T08:10:32.351Z,100706.67
2019-06-25T08:13:37.388Z,100701.84
2019-06-25T08:16:42.299Z,100705.97
2019-06-25T08:19:47.047Z,100708.24
2019-06-25T08:22:53.551Z,100706.70
2019-06-25T08:25:58.567Z,100712.25
2019-06-25T08:29:03.718Z,100710.52
2019-06-25T08:32:09.253Z,100713.91
2019-06-25T08:35:14.433Z,100715.59
2019-06-25T08:38:19.299Z,100713.48
2019-06-25T08:41:24.512Z,100722.22
2019-06-25T08:44:29.440Z,100725.67
2019-06-25T08:47:34.760Z,100723.16
2019-06-25T08:50:39.742Z,100717.17
2019-06-25T08:53:44.636Z,100721.30
2019-06-25T08:56:49.694Z,100720.37
2019-06-25T08:59:54.790Z,100719.63
2019-06-25T09:02:59.875Z,100718.44
2019-06-25T09:06:04.969Z,100716.95
2019-06-25T09:09:09.759Z,100721.91
2019-06-25T09:12:14.721Z,100716.98
2019-06-25T09:15:20.007Z,100716.95
2019-06-25T09:18:25.344Z,100716.13
2019-06-25T09:21:30.685Z,100716.82
2019-06-25T09:24:35.607Z,100720.44
2019-06-25T09:27:40.464Z,100722.59
2019-06-25T09:30:45.288Z,100724.63
2019-06-25T09:33:50.207Z,100727.39
2019-06-25T09:36:55.883Z,100725.70
2019-06-25T09:39:59.314Z,100721.28
2019-06-25T09:43:02.952Z,100727.23
2019-06-25T09:46:07.903Z,100736.25
2019-06-25T09:49:13.447Z,100735.22
2019-06-25T09:52:18.717Z,100733.17
2019-06-25T09:55:23.468Z,100732.84
2019-06-25T09:58:29.540Z,100732.50
2019-06-25T10:01:44.812Z,100736.38
2019-06-25T10:04:42.032Z,100734.71
2019-06-25T10:07:47.272Z,100738.44
2019-06-25T10:10:52.382Z,100740.41
2019-06-25T10:13:57.505Z,100736.67
2019-06-25T10:17:03.326Z,100734.38
2019-06-25T10:20:08.489Z,100737.20
2019-06-25T10:23:13.564Z,100739.10
2019-06-25T10:26:18.370Z,100736.80
2019-06-25T10:29:23.437Z,100736.86
2019-06-25T10:32:28.158Z,100733.84
2019-06-25T10:35:46.609Z,100736.22
2019-06-25T10:38:39.928Z,100732.47
2019-06-25T10:41:44.933Z,100737.51
2019-06-25T10:44:49.712Z,100735.54
2019-06-25T10:47:54.806Z,100731.67
2019-06-25T10:51:00.156Z,100732.41
2019-06-25T10:54:05.390Z,100741.67
2019-06-25T10:57:11.193Z,100739.81
2019-06-25T11:00:19.813Z,100734.64
2019-06-25T11:03:24.739Z,100738.05
2019-06-25T11:06:29.578Z,100739.14
2019-06-25T11:09:35.713Z,100739.14
2019-06-25T11:12:40.947Z,100740.26
2019-06-25T11:15:46.189Z,100731.72
2019-06-25T11:18:51.645Z,100731.64
2019-06-25T11:21:56.707Z,100728.84
2019-06-25T11:25:02.372Z,100734.64
2019-06-25T11:28:07.325Z,100729.56
2019-06-25T11:31:12.712Z,100728.13
2019-06-25T11:34:17.987Z,100722.55
2019-06-25T11:37:22.733Z,100726.55
2019-06-25T11:40:34.548Z,100720.61
2019-06-25T11:43:44.240Z,100721.41
2019-06-25T11:46:46.603Z,100722.53
2019-06-25T11:49:51.426Z,100724.38
2019-06-25T11:52:56.271Z,100724.85
2019-06-25T11:56:01.109Z,100720.85
2019-06-25T11:59:06.108Z,100717.93
2019-06-25T12:02:11.031Z,100713.16
2019-06-25T12:05:16.159Z,100712.61
2019-06-25T12:08:20.891Z,100719.10
2019-06-25T12:11:25.679Z,100716.64
2019-06-25T12:14:30.442Z,100714.41
2019-06-25T12:17:35.902Z,100708.67
2019-06-25T12:20:41.229Z,100710.68
2019-06-25T12:23:46.322Z,100716.20
2019-06-25T12:26:51.107Z,100715.41
2019-06-25T12:29:56.240Z,100703.98
2019-06-25T12:33:01.352Z,100710.57
2019-06-25T12:36:06.711Z,100706.44
2019-06-25T12:39:11.849Z,100714.53
2019-06-25T12:42:16.917Z,100711.92
2019-06-25T12:45:21.781Z,100700.61
2019-06-25T12:48:27.179Z,100704.81
2019-06-25T12:51:32.096Z,100708.52
2019-06-25T12:54:37.042Z,100702.81
2019-06-25T12:57:42.037Z,100704.75
2019-06-25T13:00:47.135Z,100701.86
2019-06-25T13:03:51.915Z,100697.97
2019-06-25T13:06:57.068Z,100696.30
2019-06-25T13:10:03.655Z,100698.03
2019-06-25T13:13:08.462Z,100690.56
2019-06-25T13:16:13.276Z,100691.58
2019-06-25T13:19:18.050Z,100688.83
2019-06-25T13:22:22.792Z,100694.12
2019-06-25T13:25:27.769Z,100687.73
2019-06-25T13:28:32.747Z,100688.67
2019-06-25T13:31:37.878Z,100687.95
2019-06-25T13:34:43.184Z,100690.87
2019-06-25T13:37:50.342Z,100688.08
2019-06-25T13:40:54.647Z,100687.26
2019-06-25T13:43:59.529Z,100686.08
2019-06-25T13:47:04.482Z,100685.77
2019-06-25T13:50:09.695Z,100683.14
2019-06-25T13:53:15.013Z,100688.02
2019-06-25T13:56:20.155Z,100685.54
2019-06-25T13:59:25.076Z,100685.81
2019-06-25T14:02:30.207Z,100688.67
2019-06-25T14:05:35.067Z,100678.95
2019-06-25T14:08:40.316Z,100675.38
2019-06-25T14:11:45.296Z,100672.78
2019-06-25T14:14:51.157Z,100674.55
2019-06-25T14:17:56.098Z,100678.45
2019-06-25T14:21:00.885Z,100677.42
2019-06-25T14:24:07.263Z,100677.09
2019-06-25T14:27:13.217Z,100682.27
2019-06-25T14:30:19.180Z,100675.02
2019-06-25T14:33:24.035Z,100668.50
2019-06-25T14:36:29.383Z,100670.50
2019-06-25T14:39:34.967Z,100667.16
2019-06-25T14:42:39.807Z,100663.77
2019-06-25T14:45:44.785Z,100658.92
2019-06-25T14:48:49.560Z,100660.09
2019-06-25T14:51:54.754Z,100666.29
2019-06-25T14:54:59.483Z,100661.02
2019-06-25T14:58:04.323Z,100654.36
2019-06-25T15:01:09.275Z,100660.80
2019-06-25T15:04:14.097Z,100655.92
2019-06-25T15:07:18.948Z,100656.48
2019-06-25T15:10:23.878Z,100652.75
2019-06-25T15:13:29.137Z,100658.36
2019-06-25T15:16:34.133Z,100655.09
2019-06-25T15:19:39.357Z,100654.47
2019-06-25T15:22:45.087Z,100646.20
2019-06-25T15:25:50.842Z,100657.28
2019-06-25T15:28:55.873Z,100651.48
2019-06-25T15:32:01.605Z,100652.12
2019-06-25T15:35:07.226Z,100650.51
2019-06-25T15:38:12.835Z,100651.61
2019-06-25T15:41:18.277Z,100647.67
2019-06-25T15:44:23.325Z,100651.79
2019-06-25T15:47:28.206Z,100657.83
2019-06-25T15:50:33.052Z,100646.67
2019-06-25T15:53:37.971Z,100652.86
2019-06-25T15:56:42.791Z,100649.14
2019-06-25T15:59:47.835Z,100651.70
2019-06-25T16:02:52.602Z,100651.98
2019-06-25T16:05:57.406Z,100649.48
2019-06-25T16:09:03.692Z,100650.70
2019-06-25T16:12:10.509Z,100652.84
2019-06-25T16:15:15.666Z,100649.11
2019-06-25T16:18:20.552Z,100654.36
2019-06-25T16:21:25.390Z,100645.84
2019-06-25T16:24:30.454Z,100648.14
2019-06-25T16:27:35.966Z,100646.87
2019-06-25T16:30:41.441Z,100643.30
2019-06-25T16:33:46.200Z,100642.25
2019-06-25T16:36:50.937Z,100644.80
2019-06-25T16:39:56.267Z,100645.97
2019-06-25T16:43:01.002Z,100649.20
2019-06-25T16:46:06.065Z,100646.05
2019-06-25T16:49:10.779Z,100643.95
2019-06-25T16:52:15.528Z,100646.05
2019-06-25T16:55:20.303Z,100649.11
2019-06-25T16:58:25.286Z,100652.05
2019-06-25T17:01:31.086Z,100647.28
2019-06-25T17:04:35.820Z,100651.73
2019-06-25T17:07:40.594Z,100646.25
2019-06-25T17:10:46.129Z,100650.70
2019-06-25T17:13:50.874Z,100643.50
2019-06-25T17:16:55.941Z,100638.86
2019-06-25T17:20:00.699Z,100642.53
2019-06-25T17:23:08.335Z,100635.44
2019-06-25T17:26:12.584Z,100647.34
2019-06-25T17:29:18.267Z,100642.94
2019-06-25T17:32:23.046Z,100641.89
2019-06-25T17:35:29.202Z,100645.05
2019-06-25T17:38:33.983Z,100643.55
2019-06-25T17:41:38.796Z,100649.02
2019-06-25T17:44:43.904Z,100651.63
2019-06-25T17:47:48.948Z,100651.43
2019-06-25T17:50:54.203Z,100648.80
2019-06-25T17:53:59.013Z,100654.73
2019-06-25T17:57:03.894Z,100661.73
2019-06-25T18:00:09.208Z,100661.55
2019-06-25T18:03:14.144Z,100662.63
2019-06-25T18:06:18.899Z,100661.59
2019-06-25T18:09:36.184Z,100662.15
2019-06-25T18:12:30.090Z,100658.45
2019-06-25T18:15:34.899Z,100659.10
2019-06-25T18:18:39.779Z,100654.62
2019-06-25T18:21:44.851Z,100663.35
2019-06-25T18:24:50.307Z,100663.25
2019-06-25T18:27:55.048Z,100659.44
2019-06-25T18:30:59.825Z,100660.87
2019-06-25T18:34:04.646Z,100655.93
2019-06-25T18:37:09.445Z,100657.84
2019-06-25T18:40:23.642Z,100663.42
2019-06-25T18:43:21.436Z,100661.52
2019-06-25T18:46:27.682Z,100656.16
2019-06-25T18:49:32.803Z,100653.75
2019-06-25T18:52:37.721Z,100661.23
2019-06-25T18:55:42.521Z,100659.27
2019-06-25T18:58:47.289Z,100660.47
2019-06-25T19:01:52.367Z,100663.17
2019-06-25T19:04:57.449Z,100662.27
2019-06-25T19:08:02.658Z,100658.36
2019-06-25T19:11:07.801Z,100660.33
2019-06-25T19:14:12.537Z,100657.66
2019-06-25T19:17:17.332Z,100663.63
2019-06-25T19:20:22.113Z,100656.92
2019-06-25T19:23:27.306Z,100658.39
2019-06-25T19:26:33.083Z,100661.94
2019-06-25T19:29:39.224Z,100664.44
2019-06-25T19:32:44.004Z,100666.70
2019-06-25T19:36:04.186Z,100672.39
2019-06-25T19:38:56.336Z,100674.95
2019-06-25T19:42:02.139Z,100680.86
2019-06-25T19:45:07.426Z,100681.05
2019-06-25T19:48:12.444Z,100684.77
2019-06-25T19:51:17.187Z,100687.20
2019-06-25T19:54:22.201Z,100696.61
2019-06-25T19:57:27.288Z,100696.83
2019-06-25T20:00:32.716Z,100699.13
2019-06-25T20:03:37.842Z,100703.08
2019-06-25T20:06:42.552Z,100705.73
2019-06-25T20:09:47.442Z,100713.93
2019-06-25T20:12:52.250Z,100710.60
2019-06-25T20:15:57.133Z,100712.49
2019-06-25T20:19:01.903Z,100707.92
2019-06-25T20:22:06.924Z,100719.85
2019-06-25T20:25:11.970Z,100722.56
2019-06-25T20:28:17.111Z,100715.11
2019-06-25T20:31:22.087Z,100725.53
2019-06-25T20:34:27.188Z,100725.04
2019-06-25T20:37:32.135Z,100722.13
2019-06-25T20:40:36.953Z,100724.35
2019-06-25T20:43:41.989Z,100722.64
2019-06-25T20:46:46.959Z,100725.88
2019-06-25T20:49:51.977Z,100727.75
2019-06-25T20:52:57.029Z,100730.12
2019-06-25T20:56:02.123Z,100727.91
2019-06-25T20:59:07.233Z,100732.64
2019-06-25T21:02:12.002Z,100726.97
2019-06-25T21:05:17.062Z,100739.81
2019-06-25T21:08:21.938Z,100738.26
2019-06-25T21:11:31.182Z,100740.98
2019-06-25T21:14:33.395Z,100744.80
2019-06-25T21:17:38.316Z,100749.37
2019-06-25T21:20:43.462Z,100749.17
2019-06-25T21:23:55.494Z,100751.83
2019-06-25T21:26:56.133Z,100754.03
2019-06-25T21:30:00.852Z,100764.52
2019-06-25T21:33:05.868Z,100766.38
2019-06-25T21:36:10.903Z,100759.37
2019-06-25T21:39:15.903Z,100763.44
2019-06-25T21:42:21.012Z,100764.73
2019-06-25T21:45:25.944Z,100767.33
2019-06-25T21:48:30.706Z,100768.34
2019-06-25T21:51:35.579Z,100773.94
2019-06-25T21:54:40.364Z,100777.47
2019-06-25T21:57:45.680Z,100782.09
2019-06-25T22:00:51.978Z,100780.59
2019-06-25T22:03:59.098Z,100781.09
2019-06-25T22:07:04.145Z,100786.83
2019-06-25T22:10:09.279Z,100789.52
2019-06-25T22:13:15.120Z,100783.00
2019-06-25T22:16:20.099Z,100788.92
2019-06-25T22:19:24.848Z,100789.98
2019-06-25T22:22:29.950Z,100789.22
2019-06-25T22:25:34.687Z,100793.19
2019-06-25T22:28:39.455Z,100796.30
2019-06-25T22:31:45.892Z,100803.22
2019-06-25T22:34:53.300Z,100804.19
2019-06-25T22:37:58.082Z,100811.17
2019-06-25T22:41:03.151Z,100814.88
2019-06-25T22:44:08.221Z,100820.30
2019-06-25T22:47:12.962Z,100820.90
2019-06-25T22:50:18.280Z,100820.36
2019-06-25T22:53:23.415Z,100814.73
2019-06-25T22:56:28.453Z,100821.17
2019-06-25T22:59:33.913Z,100818.10
2019-06-25T23:02:38.794Z,100816.50
2019-06-25T23:05:43.863Z,100827.04
2019-06-25T23:08:48.585Z,100825.52
2019-06-25T23:11:53.538Z,100824.78
2019-06-25T23:14:58.480Z,100831.20
2019-06-25T23:18:03.464Z,100826.42
2019-06-25T23:21:08.189Z,100837.84
2019-06-25T23:24:12.983Z,100834.69
2019-06-25T23:27:18.169Z,100829.05
2019-06-25T23:30:23.256Z,100820.07
2019-06-25T23:33:28.213Z,100815.11
2019-06-25T23:36:33.200Z,100819.44
2019-06-25T23:39:38.269Z,100819.39
2019-06-25T23:42:43.529Z,100819.80
2019-06-25T23:45:48.667Z,100818.62
2019-06-25T23:48:54.004Z,100815.64
2019-06-25T23:51:58.925Z,100822.50
2019-06-25T23:55:04.186Z,100817.81
2019-06-25T23:58:08.940Z,100810.60
